DYE18R GMMX-LIRF
Flight info
| Callsign | DYE18R |
|---|---|
| Flight time | 2h 33m |
| Altitude | 36000 |
| Route | OBOGA DCT ABDOR UH400 AGOVA UM372 FES UG850 BERUM DCT GONZA DCT AMR DCT DOSEK DCT RESTU DCT ALT DCT SUMMO DCT MITOS DCT BRUNO DCT RUXET DCT IZA DCT TUKRO DCT ASMOT N851 MHN DCT MORSS DCT BAVON DCT ORKUM DCT ELSAG DCT ALG DCT ROMPO DCT TINTO DCT VALMA |
| Aircraft | A320/M-SDE3FGHIRWY/LB1 |
Departure
| Time | 2026-05-06 12:11 |
|---|---|
| Airport | Marrakesh Menara Airport (GMMX) |
Arrival
| Time | 2026-05-06 14:45 |
|---|---|
| Airport | Rome–Fiumicino Leonardo da Vinci International Airport (LIRF) |
| Time | Latitude | Longitude | Altitude | Speed | Heading |
|---|---|---|---|---|---|
| 2026-05-06 10:12 | 31.60279 | -8.02338 | 1550 ft | 0 kts | 185° |
| 2026-05-06 12:00 | 31.60296 | -8.02336 | 1549 ft | 3 kts | 185° |
| 2026-05-06 12:00 | 31.60313 | -8.02334 | 1549 ft | 3 kts | 185° |
| 2026-05-06 12:00 | 31.60331 | -8.02332 | 1549 ft | 3 kts | 185° |
| 2026-05-06 12:01 | 31.60349 | -8.02333 | 1549 ft | 3 kts | 152° |
| 2026-05-06 12:01 | 31.60364 | -8.02345 | 1549 ft | 3 kts | 146° |
| 2026-05-06 12:01 | 31.60378 | -8.02356 | 1549 ft | 3 kts | 146° |
| 2026-05-06 12:01 | 31.60393 | -8.02368 | 1549 ft | 3 kts | 127° |
| 2026-05-06 12:02 | 31.60401 | -8.02387 | 1549 ft | 3 kts | 90° |
| 2026-05-06 12:02 | 31.60401 | -8.02392 | 1549 ft | 0 kts | 89° |
| 2026-05-06 12:04 | 31.60401 | -8.02391 | 1549 ft | 0 kts | 89° |
| 2026-05-06 12:04 | 31.60401 | -8.02387 | 1549 ft | 1 kts | 89° |
| 2026-05-06 12:05 | 31.60401 | -8.02371 | 1549 ft | 3 kts | 89° |
| 2026-05-06 12:05 | 31.60402 | -8.02344 | 1549 ft | 4 kts | 90° |
| 2026-05-06 12:05 | 31.60400 | -8.02306 | 1549 ft | 5 kts | 94° |
| 2026-05-06 12:05 | 31.60398 | -8.02257 | 1549 ft | 7 kts | 94° |
| 2026-05-06 12:06 | 31.60392 | -8.02199 | 1549 ft | 8 kts | 97° |
| 2026-05-06 12:06 | 31.60385 | -8.02134 | 1549 ft | 8 kts | 97° |
| 2026-05-06 12:06 | 31.60379 | -8.02068 | 1549 ft | 5 kts | 96° |
| 2026-05-06 12:06 | 31.60399 | -8.02042 | 1549 ft | 5 kts | 17° |
| 2026-05-06 12:07 | 31.60412 | -8.02040 | 1549 ft | 0 kts | 6° |
| 2026-05-06 12:07 | 31.60414 | -8.02040 | 1549 ft | 0 kts | 6° |
| 2026-05-06 12:07 | 31.60417 | -8.02040 | 1549 ft | 0 kts | 6° |
| 2026-05-06 12:08 | 31.60419 | -8.02040 | 1549 ft | 0 kts | 6° |
| 2026-05-06 12:08 | 31.60421 | -8.02039 | 1549 ft | 1 kts | 6° |
| 2026-05-06 12:08 | 31.60432 | -8.02038 | 1549 ft | 2 kts | 6° |
| 2026-05-06 12:09 | 31.60451 | -8.02036 | 1549 ft | 3 kts | 6° |
| 2026-05-06 12:09 | 31.60478 | -8.02032 | 1550 ft | 5 kts | 6° |
| 2026-05-06 12:09 | 31.60516 | -8.02028 | 1550 ft | 6 kts | 4° |
| 2026-05-06 12:09 | 31.60549 | -8.02058 | 1549 ft | 7 kts | 285° |
| 2026-05-06 12:10 | 31.60551 | -8.02072 | 1549 ft | 0 kts | 277° |
| 2026-05-06 12:10 | 31.60551 | -8.02073 | 1549 ft | 0 kts | 277° |
| 2026-05-06 12:10 | 31.60573 | -8.02296 | 1549 ft | 62 kts | 277° |
| 2026-05-06 12:11 | 31.60642 | -8.03054 | 1546 ft | 121 kts | 275° |
| 2026-05-06 12:11 | 31.60744 | -8.04233 | 1532 ft | 165 kts | 276° |
| 2026-05-06 12:11 | 31.60849 | -8.05622 | 2024 ft | 170 kts | 277° |
| 2026-05-06 12:11 | 31.60955 | -8.07026 | 2778 ft | 168 kts | 276° |
| 2026-05-06 12:12 | 31.61065 | -8.08401 | 3442 ft | 170 kts | 278° |
| 2026-05-06 12:12 | 31.61195 | -8.09845 | 3829 ft | 187 kts | 277° |
| 2026-05-06 12:12 | 31.61348 | -8.11450 | 4105 ft | 210 kts | 277° |
| 2026-05-06 12:12 | 31.61786 | -8.13179 | 4380 ft | 235 kts | 303° |
| 2026-05-06 12:13 | 31.62585 | -8.14155 | 4645 ft | 252 kts | 327° |
| 2026-05-06 12:13 | 31.64330 | -8.14698 | 5195 ft | 271 kts | 3° |
| 2026-05-06 12:13 | 31.66120 | -8.13912 | 5935 ft | 283 kts | 37° |
| 2026-05-06 12:13 | 31.67524 | -8.12171 | 6694 ft | 291 kts | 53° |
| 2026-05-06 12:14 | 31.68633 | -8.10122 | 7464 ft | 297 kts | 59° |
| 2026-05-06 12:14 | 31.69636 | -8.07985 | 8251 ft | 301 kts | 61° |
| 2026-05-06 12:14 | 31.70652 | -8.05802 | 8985 ft | 307 kts | 60° |
| 2026-05-06 12:14 | 31.71717 | -8.03612 | 9693 ft | 311 kts | 59° |
| 2026-05-06 12:15 | 31.72881 | -8.01342 | 10260 ft | 322 kts | 58° |
| 2026-05-06 12:15 | 31.74090 | -7.99075 | 10416 ft | 344 kts | 57° |
| 2026-05-06 12:15 | 31.75433 | -7.96614 | 10739 ft | 359 kts | 56° |
| 2026-05-06 12:15 | 31.76816 | -7.94105 | 11339 ft | 364 kts | 56° |
| 2026-05-06 12:16 | 31.78217 | -7.91565 | 11972 ft | 367 kts | 56° |
| 2026-05-06 12:16 | 31.79613 | -7.89030 | 12607 ft | 371 kts | 56° |
| 2026-05-06 12:16 | 31.81020 | -7.86468 | 13224 ft | 374 kts | 56° |
| 2026-05-06 12:16 | 31.82430 | -7.83886 | 13836 ft | 377 kts | 57° |
| 2026-05-06 12:17 | 31.83613 | -7.81069 | 14364 ft | 382 kts | 69° |
| 2026-05-06 12:17 | 31.84320 | -7.78046 | 14881 ft | 386 kts | 80° |
| 2026-05-06 12:17 | 31.84791 | -7.74925 | 15390 ft | 389 kts | 80° |
| 2026-05-06 12:17 | 31.85271 | -7.71778 | 15910 ft | 393 kts | 80° |
| 2026-05-06 12:18 | 31.85761 | -7.68604 | 16421 ft | 397 kts | 80° |
| 2026-05-06 12:18 | 31.86267 | -7.65363 | 16942 ft | 400 kts | 80° |
| 2026-05-06 12:18 | 31.86772 | -7.62122 | 17462 ft | 404 kts | 80° |
| 2026-05-06 12:18 | 31.87284 | -7.58814 | 17980 ft | 408 kts | 80° |
| 2026-05-06 12:19 | 31.87796 | -7.55487 | 18464 ft | 411 kts | 80° |
| 2026-05-06 12:19 | 31.88312 | -7.52194 | 18917 ft | 415 kts | 78° |
| 2026-05-06 12:19 | 31.89171 | -7.48930 | 19360 ft | 419 kts | 66° |
| 2026-05-06 12:19 | 31.90481 | -7.45816 | 19806 ft | 422 kts | 61° |
| 2026-05-06 12:20 | 31.91866 | -7.42749 | 20258 ft | 425 kts | 61° |
| 2026-05-06 12:20 | 31.93291 | -7.39578 | 20695 ft | 429 kts | 61° |
| 2026-05-06 12:20 | 31.94705 | -7.36416 | 21115 ft | 433 kts | 61° |
| 2026-05-06 12:20 | 31.96113 | -7.33263 | 21531 ft | 437 kts | 61° |
| 2026-05-06 12:21 | 31.97530 | -7.30086 | 21940 ft | 440 kts | 61° |
| 2026-05-06 12:21 | 31.98987 | -7.26816 | 22332 ft | 444 kts | 61° |
| 2026-05-06 12:21 | 32.00000 | -7.24540 | 22611 ft | 446 kts | 61° |
| 2026-05-06 12:21 | 32.01492 | -7.21186 | 23017 ft | 450 kts | 61° |
| 2026-05-06 12:22 | 32.02952 | -7.17905 | 23403 ft | 453 kts | 61° |
| 2026-05-06 12:22 | 32.04419 | -7.14604 | 23842 ft | 452 kts | 61° |
| 2026-05-06 12:22 | 32.05861 | -7.11360 | 24928 ft | 430 kts | 61° |
| 2026-05-06 12:22 | 32.07216 | -7.08306 | 25939 ft | 413 kts | 61° |
| 2026-05-06 12:23 | 32.08540 | -7.05319 | 26425 ft | 411 kts | 61° |
| 2026-05-06 12:23 | 32.09873 | -7.02317 | 26724 ft | 415 kts | 61° |
| 2026-05-06 12:23 | 32.11217 | -6.99288 | 27012 ft | 419 kts | 61° |
| 2026-05-06 12:23 | 32.12572 | -6.96233 | 27284 ft | 422 kts | 61° |
| 2026-05-06 12:24 | 32.13938 | -6.93156 | 27542 ft | 426 kts | 61° |
| 2026-05-06 12:24 | 32.15318 | -6.90043 | 27794 ft | 430 kts | 62° |
| 2026-05-06 12:24 | 32.16725 | -6.86856 | 28081 ft | 434 kts | 62° |
| 2026-05-06 12:24 | 32.18121 | -6.83686 | 28321 ft | 438 kts | 62° |
| 2026-05-06 12:25 | 32.19536 | -6.80469 | 28591 ft | 442 kts | 62° |
| 2026-05-06 12:25 | 32.20978 | -6.77184 | 28835 ft | 447 kts | 62° |
| 2026-05-06 12:25 | 32.22415 | -6.73914 | 29086 ft | 451 kts | 62° |
| 2026-05-06 12:25 | 32.23868 | -6.70610 | 29265 ft | 457 kts | 62° |
| 2026-05-06 12:26 | 32.25358 | -6.67223 | 29574 ft | 459 kts | 62° |
| 2026-05-06 12:26 | 32.26906 | -6.63698 | 29861 ft | 463 kts | 62° |
| 2026-05-06 12:26 | 32.27912 | -6.61406 | 30021 ft | 465 kts | 62° |
| 2026-05-06 12:26 | 32.29612 | -6.57525 | 30295 ft | 469 kts | 62° |
| 2026-05-06 12:27 | 32.31175 | -6.53946 | 30539 ft | 472 kts | 62° |
| 2026-05-06 12:27 | 32.32743 | -6.50351 | 30789 ft | 475 kts | 62° |
| 2026-05-06 12:27 | 32.34284 | -6.46820 | 31017 ft | 478 kts | 62° |
| 2026-05-06 12:27 | 32.35832 | -6.43269 | 31261 ft | 481 kts | 62° |
| 2026-05-06 12:28 | 32.37386 | -6.39700 | 31510 ft | 483 kts | 62° |
| 2026-05-06 12:28 | 32.38960 | -6.36103 | 31762 ft | 485 kts | 60° |
| 2026-05-06 12:28 | 32.40810 | -6.32623 | 32000 ft | 486 kts | 50° |
| 2026-05-06 12:28 | 32.43008 | -6.29486 | 32214 ft | 485 kts | 41° |
| 2026-05-06 12:29 | 32.45572 | -6.26661 | 32456 ft | 481 kts | 32° |
| 2026-05-06 12:29 | 32.47333 | -6.25090 | 32607 ft | 478 kts | 27° |
| 2026-05-06 12:29 | 32.50204 | -6.22711 | 32840 ft | 480 kts | 27° |
| 2026-05-06 12:29 | 32.52948 | -6.20427 | 33051 ft | 483 kts | 27° |
| 2026-05-06 12:30 | 32.55766 | -6.18073 | 33239 ft | 486 kts | 27° |
| 2026-05-06 12:30 | 32.58583 | -6.15712 | 33437 ft | 489 kts | 27° |
| 2026-05-06 12:30 | 32.61443 | -6.13311 | 33638 ft | 492 kts | 27° |
| 2026-05-06 12:30 | 32.64277 | -6.10928 | 33830 ft | 494 kts | 27° |
| 2026-05-06 12:31 | 32.67012 | -6.08624 | 34001 ft | 497 kts | 27° |
| 2026-05-06 12:31 | 32.69989 | -6.06117 | 34216 ft | 498 kts | 28° |
| 2026-05-06 12:31 | 32.72825 | -6.03729 | 34405 ft | 500 kts | 28° |
| 2026-05-06 12:31 | 32.75657 | -6.01343 | 34601 ft | 501 kts | 27° |
| 2026-05-06 12:32 | 32.78550 | -5.98906 | 34812 ft | 502 kts | 28° |
| 2026-05-06 12:32 | 32.81402 | -5.96507 | 35027 ft | 503 kts | 28° |
| 2026-05-06 12:32 | 32.84336 | -5.94043 | 35280 ft | 503 kts | 28° |
| 2026-05-06 12:32 | 32.87226 | -5.91618 | 35537 ft | 502 kts | 28° |
| 2026-05-06 12:33 | 32.90082 | -5.89222 | 35785 ft | 501 kts | 28° |
| 2026-05-06 12:33 | 32.92932 | -5.86825 | 35932 ft | 504 kts | 28° |
| 2026-05-06 12:33 | 32.98851 | -5.81843 | 35957 ft | 517 kts | 28° |
| 2026-05-06 12:34 | 33.04795 | -5.76825 | 35960 ft | 530 kts | 28° |
| 2026-05-06 12:34 | 33.10875 | -5.71667 | 35957 ft | 534 kts | 29° |
| 2026-05-06 12:35 | 33.16932 | -5.66513 | 35959 ft | 534 kts | 29° |
| 2026-05-06 12:35 | 33.22964 | -5.61377 | 35962 ft | 532 kts | 29° |
| 2026-05-06 12:36 | 33.29004 | -5.56228 | 35969 ft | 533 kts | 29° |
| 2026-05-06 12:36 | 33.35083 | -5.51054 | 35995 ft | 533 kts | 29° |
| 2026-05-06 12:37 | 33.41113 | -5.45908 | 36015 ft | 532 kts | 29° |
| 2026-05-06 12:37 | 33.47112 | -5.40766 | 36017 ft | 530 kts | 30° |
| 2026-05-06 12:38 | 33.53101 | -5.35623 | 36025 ft | 528 kts | 30° |
| 2026-05-06 12:38 | 33.58126 | -5.31301 | 36026 ft | 527 kts | 30° |
| 2026-05-06 12:39 | 33.64079 | -5.26171 | 36024 ft | 525 kts | 30° |
| 2026-05-06 12:39 | 33.70031 | -5.21037 | 36028 ft | 523 kts | 30° |
| 2026-05-06 12:40 | 33.75929 | -5.15935 | 36030 ft | 522 kts | 30° |
| 2026-05-06 12:40 | 33.81813 | -5.10841 | 36035 ft | 520 kts | 30° |
| 2026-05-06 12:41 | 33.87710 | -5.05732 | 36040 ft | 518 kts | 30° |
| 2026-05-06 12:41 | 33.93553 | -5.00664 | 36034 ft | 517 kts | 31° |
| 2026-05-06 12:42 | 33.99354 | -4.95457 | 36037 ft | 516 kts | 32° |
| 2026-05-06 12:42 | 34.05036 | -4.90194 | 36034 ft | 514 kts | 33° |
| 2026-05-06 12:43 | 34.10711 | -4.84961 | 36029 ft | 512 kts | 32° |
| 2026-05-06 12:43 | 34.16422 | -4.79744 | 36020 ft | 511 kts | 32° |
| 2026-05-06 12:44 | 34.22081 | -4.74573 | 36016 ft | 510 kts | 32° |
| 2026-05-06 12:44 | 34.27723 | -4.69395 | 36011 ft | 509 kts | 32° |
| 2026-05-06 12:45 | 34.33387 | -4.64180 | 36014 ft | 507 kts | 33° |
| 2026-05-06 12:46 | 34.41778 | -4.56430 | 36013 ft | 505 kts | 33° |
| 2026-05-06 12:46 | 34.47380 | -4.51221 | 36017 ft | 503 kts | 33° |
| 2026-05-06 12:47 | 34.52920 | -4.46037 | 36000 ft | 502 kts | 33° |
| 2026-05-06 12:47 | 34.58439 | -4.40858 | 36003 ft | 501 kts | 33° |
| 2026-05-06 12:48 | 34.63953 | -4.35693 | 36006 ft | 500 kts | 33° |
| 2026-05-06 12:48 | 34.69451 | -4.30538 | 35997 ft | 499 kts | 33° |
| 2026-05-06 12:49 | 34.74981 | -4.25345 | 35993 ft | 499 kts | 33° |
| 2026-05-06 12:49 | 34.80452 | -4.20188 | 35996 ft | 497 kts | 33° |
| 2026-05-06 12:50 | 34.85922 | -4.15026 | 35999 ft | 497 kts | 33° |
| 2026-05-06 12:50 | 34.91377 | -4.09871 | 35987 ft | 496 kts | 33° |
| 2026-05-06 12:51 | 34.96896 | -4.04650 | 35986 ft | 494 kts | 34° |
| 2026-05-06 12:51 | 35.02355 | -3.99467 | 35980 ft | 494 kts | 34° |
| 2026-05-06 12:52 | 35.07768 | -3.94314 | 35981 ft | 493 kts | 34° |
| 2026-05-06 12:52 | 35.13210 | -3.89135 | 35977 ft | 492 kts | 34° |
| 2026-05-06 12:53 | 35.18610 | -3.83997 | 35980 ft | 491 kts | 34° |
| 2026-05-06 12:53 | 35.24019 | -3.78927 | 35975 ft | 490 kts | 33° |
| 2026-05-06 12:54 | 35.29463 | -3.73924 | 35977 ft | 489 kts | 33° |
| 2026-05-06 12:54 | 35.34936 | -3.68882 | 35981 ft | 489 kts | 33° |
| 2026-05-06 12:55 | 35.39626 | -3.64532 | 35979 ft | 488 kts | 33° |
| 2026-05-06 12:55 | 35.45030 | -3.59497 | 35979 ft | 488 kts | 33° |
| 2026-05-06 12:56 | 35.50474 | -3.54415 | 35976 ft | 488 kts | 33° |
| 2026-05-06 12:56 | 35.55902 | -3.49342 | 35976 ft | 487 kts | 33° |
| 2026-05-06 12:57 | 35.61340 | -3.44253 | 35974 ft | 487 kts | 33° |
| 2026-05-06 12:57 | 35.66728 | -3.39209 | 35966 ft | 487 kts | 33° |
| 2026-05-06 12:58 | 35.72111 | -3.34160 | 35963 ft | 487 kts | 34° |
| 2026-05-06 12:58 | 35.77521 | -3.29066 | 35958 ft | 486 kts | 34° |
| 2026-05-06 12:59 | 35.82886 | -3.23999 | 35958 ft | 486 kts | 34° |
| 2026-05-06 12:59 | 35.88287 | -3.18867 | 35950 ft | 487 kts | 34° |
| 2026-05-06 13:00 | 35.93622 | -3.13722 | 35944 ft | 487 kts | 34° |
| 2026-05-06 13:00 | 35.98945 | -3.08558 | 35944 ft | 486 kts | 34° |
| 2026-05-06 13:01 | 36.04308 | -3.03362 | 35943 ft | 486 kts | 34° |
| 2026-05-06 13:01 | 36.09641 | -2.98202 | 35946 ft | 486 kts | 34° |
| 2026-05-06 13:02 | 36.15002 | -2.93023 | 35944 ft | 487 kts | 34° |
| 2026-05-06 13:02 | 36.20335 | -2.87848 | 35947 ft | 487 kts | 34° |
| 2026-05-06 13:03 | 36.25694 | -2.82628 | 35947 ft | 487 kts | 34° |
| 2026-05-06 13:03 | 36.31089 | -2.77366 | 35943 ft | 487 kts | 34° |
| 2026-05-06 13:04 | 36.36417 | -2.72158 | 35946 ft | 487 kts | 34° |
| 2026-05-06 13:04 | 36.41780 | -2.66917 | 35956 ft | 487 kts | 34° |
| 2026-05-06 13:05 | 36.46458 | -2.62336 | 35949 ft | 487 kts | 34° |
| 2026-05-06 13:05 | 36.52274 | -2.56615 | 35947 ft | 487 kts | 35° |
| 2026-05-06 13:06 | 36.57691 | -2.51270 | 35941 ft | 488 kts | 35° |
| 2026-05-06 13:06 | 36.63050 | -2.46004 | 35942 ft | 488 kts | 34° |
| 2026-05-06 13:07 | 36.67657 | -2.41471 | 35943 ft | 488 kts | 34° |
| 2026-05-06 13:07 | 36.73192 | -2.35990 | 35940 ft | 488 kts | 35° |
| 2026-05-06 13:08 | 36.78516 | -2.30715 | 35938 ft | 489 kts | 35° |
| 2026-05-06 13:08 | 36.83968 | -2.25580 | 35942 ft | 485 kts | 26° |
| 2026-05-06 13:09 | 36.89916 | -2.21582 | 35940 ft | 482 kts | 23° |
| 2026-05-06 13:09 | 36.95861 | -2.17650 | 35939 ft | 483 kts | 23° |
| 2026-05-06 13:10 | 37.01874 | -2.13645 | 35943 ft | 483 kts | 23° |
| 2026-05-06 13:10 | 37.07805 | -2.09676 | 35944 ft | 484 kts | 23° |
| 2026-05-06 13:11 | 37.13788 | -2.05689 | 35951 ft | 484 kts | 23° |
| 2026-05-06 13:11 | 37.19734 | -2.01724 | 35952 ft | 484 kts | 23° |
| 2026-05-06 13:12 | 37.25405 | -1.97092 | 35947 ft | 492 kts | 38° |
| 2026-05-06 13:12 | 37.30196 | -1.90831 | 35945 ft | 495 kts | 44° |
| 2026-05-06 13:13 | 37.34933 | -1.84393 | 35941 ft | 495 kts | 45° |
| 2026-05-06 13:13 | 37.39620 | -1.78044 | 35940 ft | 496 kts | 44° |
| 2026-05-06 13:14 | 37.44331 | -1.71635 | 35937 ft | 496 kts | 44° |
| 2026-05-06 13:14 | 37.49170 | -1.65021 | 35925 ft | 511 kts | 45° |
| 2026-05-06 13:15 | 37.53242 | -1.59440 | 35920 ft | 519 kts | 45° |
| 2026-05-06 13:15 | 37.58172 | -1.52677 | 35920 ft | 521 kts | 45° |
| 2026-05-06 13:16 | 37.63183 | -1.45803 | 35924 ft | 521 kts | 45° |
| 2026-05-06 13:16 | 37.68082 | -1.39055 | 35930 ft | 522 kts | 45° |
| 2026-05-06 13:17 | 37.73015 | -1.32247 | 35941 ft | 522 kts | 45° |
| 2026-05-06 13:17 | 37.77943 | -1.25429 | 35961 ft | 522 kts | 45° |
| 2026-05-06 13:18 | 37.82906 | -1.18557 | 35960 ft | 522 kts | 45° |
| 2026-05-06 13:18 | 37.87820 | -1.11725 | 35963 ft | 522 kts | 45° |
| 2026-05-06 13:19 | 37.92745 | -1.04869 | 35961 ft | 522 kts | 45° |
| 2026-05-06 13:19 | 37.97627 | -0.98052 | 35939 ft | 522 kts | 45° |
| 2026-05-06 13:20 | 38.02539 | -0.91186 | 35939 ft | 522 kts | 45° |
| 2026-05-06 13:20 | 38.07410 | -0.84372 | 35949 ft | 521 kts | 45° |
| 2026-05-06 13:21 | 38.12309 | -0.77498 | 35955 ft | 521 kts | 45° |
| 2026-05-06 13:21 | 38.17233 | -0.70576 | 35960 ft | 521 kts | 45° |
| 2026-05-06 13:22 | 38.22150 | -0.63643 | 35962 ft | 521 kts | 45° |
| 2026-05-06 13:22 | 38.26683 | -0.56447 | 35951 ft | 523 kts | 58° |
| 2026-05-06 13:23 | 38.29731 | -0.47904 | 35953 ft | 524 kts | 68° |
| 2026-05-06 13:23 | 38.32474 | -0.39313 | 35950 ft | 524 kts | 68° |
| 2026-05-06 13:24 | 38.35231 | -0.30717 | 35951 ft | 524 kts | 68° |
| 2026-05-06 13:24 | 38.37541 | -0.23533 | 35954 ft | 524 kts | 67° |
| 2026-05-06 13:25 | 38.40397 | -0.14973 | 35955 ft | 524 kts | 66° |
| 2026-05-06 13:25 | 38.43294 | -0.06373 | 35959 ft | 524 kts | 67° |
| 2026-05-06 13:26 | 38.46135 | 0.02194 | 35963 ft | 524 kts | 67° |
| 2026-05-06 13:26 | 38.48928 | 0.10859 | 35959 ft | 524 kts | 68° |
| 2026-05-06 13:27 | 38.51661 | 0.19476 | 35966 ft | 524 kts | 68° |
| 2026-05-06 13:27 | 38.54408 | 0.28109 | 35965 ft | 524 kts | 68° |
| 2026-05-06 13:28 | 38.57175 | 0.36785 | 35961 ft | 524 kts | 68° |
| 2026-05-06 13:28 | 38.59917 | 0.45401 | 35975 ft | 523 kts | 68° |
| 2026-05-06 13:29 | 38.62646 | 0.54021 | 35975 ft | 523 kts | 68° |
| 2026-05-06 13:29 | 38.65395 | 0.62731 | 35960 ft | 523 kts | 68° |
| 2026-05-06 13:30 | 38.68103 | 0.71344 | 35955 ft | 523 kts | 68° |
| 2026-05-06 13:30 | 38.70843 | 0.80082 | 35964 ft | 523 kts | 68° |
| 2026-05-06 13:31 | 38.73539 | 0.88728 | 35956 ft | 523 kts | 69° |
| 2026-05-06 13:31 | 38.76229 | 0.97374 | 35963 ft | 523 kts | 69° |
| 2026-05-06 13:32 | 38.78879 | 1.05902 | 35967 ft | 523 kts | 69° |
| 2026-05-06 13:32 | 38.81587 | 1.14617 | 35949 ft | 523 kts | 69° |
| 2026-05-06 13:33 | 38.84287 | 1.23338 | 35952 ft | 523 kts | 69° |
| 2026-05-06 13:33 | 38.86961 | 1.32031 | 35960 ft | 523 kts | 69° |
| 2026-05-06 13:34 | 38.89626 | 1.40750 | 35962 ft | 522 kts | 69° |
| 2026-05-06 13:34 | 38.92306 | 1.49520 | 35970 ft | 520 kts | 69° |
| 2026-05-06 13:35 | 38.94899 | 1.58239 | 35970 ft | 519 kts | 70° |
| 2026-05-06 13:35 | 38.97436 | 1.66968 | 35967 ft | 518 kts | 70° |
| 2026-05-06 13:36 | 38.99972 | 1.75629 | 35964 ft | 517 kts | 70° |
| 2026-05-06 13:36 | 39.02527 | 1.84335 | 35972 ft | 517 kts | 70° |
| 2026-05-06 13:37 | 39.05063 | 1.93007 | 35956 ft | 517 kts | 70° |
| 2026-05-06 13:37 | 39.07585 | 2.01703 | 35967 ft | 516 kts | 70° |
| 2026-05-06 13:38 | 39.09690 | 2.08962 | 35966 ft | 516 kts | 70° |
| 2026-05-06 13:38 | 39.12201 | 2.17628 | 35959 ft | 516 kts | 70° |
| 2026-05-06 13:39 | 39.14709 | 2.26340 | 35955 ft | 516 kts | 70° |
| 2026-05-06 13:39 | 39.17212 | 2.35074 | 35950 ft | 516 kts | 70° |
| 2026-05-06 13:40 | 39.19703 | 2.43783 | 35951 ft | 516 kts | 70° |
| 2026-05-06 13:40 | 39.22192 | 2.52509 | 35949 ft | 516 kts | 70° |
| 2026-05-06 13:41 | 39.24691 | 2.61313 | 35953 ft | 517 kts | 70° |
| 2026-05-06 13:41 | 39.27162 | 2.70026 | 35948 ft | 517 kts | 71° |
| 2026-05-06 13:42 | 39.29654 | 2.78867 | 35947 ft | 517 kts | 71° |
| 2026-05-06 13:42 | 39.32138 | 2.87697 | 35943 ft | 517 kts | 71° |
| 2026-05-06 13:43 | 39.34614 | 2.96476 | 35957 ft | 516 kts | 71° |
| 2026-05-06 13:43 | 39.37059 | 3.05214 | 35957 ft | 516 kts | 71° |
| 2026-05-06 13:44 | 39.39504 | 3.14003 | 35958 ft | 516 kts | 71° |
| 2026-05-06 13:44 | 39.41944 | 3.22791 | 35963 ft | 516 kts | 70° |
| 2026-05-06 13:45 | 39.45241 | 3.31090 | 35959 ft | 516 kts | 58° |
| 2026-05-06 13:45 | 39.50776 | 3.43113 | 35967 ft | 516 kts | 59° |
| 2026-05-06 13:46 | 39.54442 | 3.51108 | 35961 ft | 516 kts | 59° |
| 2026-05-06 13:46 | 39.58100 | 3.59095 | 35973 ft | 516 kts | 59° |
| 2026-05-06 13:47 | 39.61778 | 3.67153 | 35970 ft | 515 kts | 59° |
| 2026-05-06 13:47 | 39.65440 | 3.75217 | 35971 ft | 515 kts | 59° |
| 2026-05-06 13:48 | 39.69080 | 3.83239 | 35973 ft | 516 kts | 59° |
| 2026-05-06 13:48 | 39.72712 | 3.91249 | 35975 ft | 516 kts | 59° |
| 2026-05-06 13:49 | 39.76364 | 3.99345 | 35981 ft | 516 kts | 59° |
| 2026-05-06 13:49 | 39.79992 | 4.07409 | 35984 ft | 516 kts | 59° |
| 2026-05-06 13:50 | 39.83030 | 4.14179 | 35989 ft | 516 kts | 59° |
| 2026-05-06 13:50 | 39.86375 | 4.22392 | 35980 ft | 515 kts | 70° |
| 2026-05-06 13:51 | 39.88384 | 4.31330 | 35983 ft | 514 kts | 76° |
| 2026-05-06 13:51 | 39.90262 | 4.40372 | 35982 ft | 514 kts | 76° |
| 2026-05-06 13:52 | 39.92122 | 4.49357 | 35970 ft | 514 kts | 77° |
| 2026-05-06 13:52 | 39.93980 | 4.58405 | 35960 ft | 514 kts | 77° |
| 2026-05-06 13:53 | 39.95835 | 4.67456 | 35961 ft | 514 kts | 76° |
| 2026-05-06 13:53 | 39.97810 | 4.76415 | 35964 ft | 514 kts | 75° |
| 2026-05-06 13:54 | 39.99915 | 4.85326 | 35973 ft | 514 kts | 74° |
| 2026-05-06 13:54 | 40.02016 | 4.94309 | 35971 ft | 514 kts | 75° |
| 2026-05-06 13:55 | 40.04040 | 5.03276 | 35971 ft | 514 kts | 75° |
| 2026-05-06 13:55 | 40.06046 | 5.12261 | 35972 ft | 513 kts | 75° |
| 2026-05-06 13:56 | 40.08064 | 5.21267 | 35970 ft | 513 kts | 75° |
| 2026-05-06 13:56 | 40.10064 | 5.30204 | 35967 ft | 513 kts | 75° |
| 2026-05-06 13:57 | 40.12061 | 5.39147 | 35964 ft | 512 kts | 75° |
| 2026-05-06 13:57 | 40.14055 | 5.48149 | 35966 ft | 512 kts | 76° |
| 2026-05-06 13:58 | 40.16036 | 5.57088 | 35964 ft | 512 kts | 75° |
| 2026-05-06 13:58 | 40.18013 | 5.66047 | 35973 ft | 512 kts | 76° |
| 2026-05-06 13:59 | 40.19985 | 5.75052 | 35973 ft | 512 kts | 76° |
| 2026-05-06 13:59 | 40.22003 | 5.84304 | 35972 ft | 512 kts | 76° |
| 2026-05-06 14:00 | 40.23957 | 5.93260 | 35974 ft | 511 kts | 76° |
| 2026-05-06 14:00 | 40.25915 | 6.02329 | 35972 ft | 511 kts | 76° |
| 2026-05-06 14:01 | 40.27835 | 6.11275 | 35970 ft | 511 kts | 76° |
| 2026-05-06 14:01 | 40.29755 | 6.20234 | 35971 ft | 510 kts | 76° |
| 2026-05-06 14:02 | 40.31686 | 6.29234 | 35971 ft | 509 kts | 76° |
| 2026-05-06 14:02 | 40.33592 | 6.38172 | 35971 ft | 509 kts | 76° |
| 2026-05-06 14:03 | 40.35481 | 6.47108 | 35970 ft | 509 kts | 76° |
| 2026-05-06 14:03 | 40.37079 | 6.54664 | 35965 ft | 509 kts | 76° |
| 2026-05-06 14:04 | 40.38970 | 6.63603 | 35969 ft | 508 kts | 77° |
| 2026-05-06 14:04 | 40.40848 | 6.72535 | 35975 ft | 508 kts | 77° |
| 2026-05-06 14:05 | 40.42713 | 6.81482 | 35977 ft | 508 kts | 77° |
| 2026-05-06 14:05 | 40.44576 | 6.90468 | 35976 ft | 507 kts | 77° |
| 2026-05-06 14:06 | 40.46424 | 6.99422 | 35978 ft | 507 kts | 77° |
| 2026-05-06 14:06 | 40.48281 | 7.08408 | 35974 ft | 507 kts | 77° |
| 2026-05-06 14:07 | 40.50135 | 7.17403 | 35976 ft | 506 kts | 78° |
| 2026-05-06 14:07 | 40.51975 | 7.26405 | 35975 ft | 506 kts | 78° |
| 2026-05-06 14:08 | 40.53789 | 7.35343 | 35972 ft | 506 kts | 78° |
| 2026-05-06 14:08 | 40.55595 | 7.44286 | 35970 ft | 506 kts | 78° |
| 2026-05-06 14:09 | 40.56848 | 7.53370 | 35969 ft | 501 kts | 87° |
| 2026-05-06 14:09 | 40.57635 | 7.62500 | 35969 ft | 502 kts | 87° |
| 2026-05-06 14:10 | 40.58429 | 7.71737 | 35970 ft | 501 kts | 87° |
| 2026-05-06 14:10 | 40.59214 | 7.80926 | 35973 ft | 501 kts | 87° |
| 2026-05-06 14:11 | 40.59987 | 7.90011 | 35976 ft | 501 kts | 87° |
| 2026-05-06 14:11 | 40.60753 | 7.99259 | 35979 ft | 500 kts | 87° |
| 2026-05-06 14:12 | 40.61511 | 8.08426 | 35980 ft | 500 kts | 87° |
| 2026-05-06 14:12 | 40.62269 | 8.17627 | 35980 ft | 500 kts | 87° |
| 2026-05-06 14:13 | 40.63571 | 8.26611 | 35977 ft | 506 kts | 73° |
| 2026-05-06 14:13 | 40.66278 | 8.35302 | 35973 ft | 508 kts | 69° |
| 2026-05-06 14:14 | 40.69032 | 8.44029 | 35967 ft | 508 kts | 70° |
| 2026-05-06 14:14 | 40.71311 | 8.51305 | 35963 ft | 509 kts | 70° |
| 2026-05-06 14:15 | 40.74029 | 8.59970 | 35955 ft | 510 kts | 70° |
| 2026-05-06 14:15 | 40.76774 | 8.68708 | 35945 ft | 511 kts | 70° |
| 2026-05-06 14:16 | 40.79467 | 8.77356 | 35940 ft | 512 kts | 71° |
| 2026-05-06 14:16 | 40.82215 | 8.86244 | 35940 ft | 513 kts | 71° |
| 2026-05-06 14:17 | 40.84950 | 8.95083 | 35942 ft | 514 kts | 71° |
| 2026-05-06 14:17 | 40.87673 | 9.03892 | 35940 ft | 515 kts | 71° |
| 2026-05-06 14:18 | 40.90354 | 9.12595 | 35946 ft | 515 kts | 71° |
| 2026-05-06 14:18 | 40.93080 | 9.21497 | 35949 ft | 516 kts | 71° |
| 2026-05-06 14:19 | 40.95404 | 9.29125 | 35952 ft | 517 kts | 71° |
| 2026-05-06 14:19 | 40.98097 | 9.37992 | 35960 ft | 518 kts | 71° |
| 2026-05-06 14:20 | 41.00813 | 9.46945 | 35962 ft | 519 kts | 71° |
| 2026-05-06 14:20 | 41.03545 | 9.55967 | 35961 ft | 519 kts | 71° |
| 2026-05-06 14:21 | 41.05621 | 9.62840 | 35957 ft | 520 kts | 71° |
| 2026-05-06 14:21 | 41.08627 | 9.72842 | 35955 ft | 521 kts | 71° |
| 2026-05-06 14:22 | 41.11383 | 9.82053 | 35954 ft | 521 kts | 71° |
| 2026-05-06 14:22 | 41.13637 | 9.89607 | 35954 ft | 521 kts | 71° |
| 2026-05-06 14:23 | 41.16669 | 9.99803 | 35964 ft | 522 kts | 71° |
| 2026-05-06 14:23 | 41.18976 | 10.07570 | 35962 ft | 522 kts | 71° |
| 2026-05-06 14:24 | 41.21985 | 10.17751 | 35959 ft | 522 kts | 71° |
| 2026-05-06 14:24 | 41.23300 | 10.22212 | 35801 ft | 518 kts | 71° |
| 2026-05-06 14:24 | 41.24640 | 10.26764 | 35054 ft | 521 kts | 72° |
| 2026-05-06 14:25 | 41.25958 | 10.31246 | 34430 ft | 522 kts | 72° |
| 2026-05-06 14:25 | 41.27344 | 10.35971 | 33809 ft | 521 kts | 72° |
| 2026-05-06 14:25 | 41.28659 | 10.40467 | 33233 ft | 519 kts | 72° |
| 2026-05-06 14:25 | 41.29994 | 10.45032 | 32720 ft | 515 kts | 72° |
| 2026-05-06 14:26 | 41.30866 | 10.48023 | 32389 ft | 512 kts | 72° |
| 2026-05-06 14:26 | 41.32151 | 10.52437 | 31910 ft | 508 kts | 72° |
| 2026-05-06 14:26 | 41.33441 | 10.56857 | 31441 ft | 504 kts | 72° |
| 2026-05-06 14:26 | 41.34718 | 10.61234 | 30971 ft | 499 kts | 72° |
| 2026-05-06 14:27 | 41.35955 | 10.65494 | 30398 ft | 493 kts | 72° |
| 2026-05-06 14:27 | 41.37207 | 10.69826 | 29303 ft | 497 kts | 72° |
| 2026-05-06 14:27 | 41.38475 | 10.74225 | 28199 ft | 505 kts | 71° |
| 2026-05-06 14:27 | 41.39730 | 10.78589 | 27495 ft | 503 kts | 71° |
| 2026-05-06 14:28 | 41.40974 | 10.82907 | 26904 ft | 498 kts | 71° |
| 2026-05-06 14:28 | 41.42229 | 10.87251 | 26346 ft | 493 kts | 71° |
| 2026-05-06 14:28 | 41.43450 | 10.91497 | 25795 ft | 487 kts | 71° |
| 2026-05-06 14:28 | 41.44651 | 10.95680 | 25277 ft | 482 kts | 71° |
| 2026-05-06 14:29 | 41.45859 | 10.99899 | 24759 ft | 477 kts | 71° |
| 2026-05-06 14:29 | 41.47029 | 11.03999 | 24243 ft | 472 kts | 71° |
| 2026-05-06 14:29 | 41.48205 | 11.08123 | 23744 ft | 466 kts | 71° |
| 2026-05-06 14:29 | 41.49343 | 11.12144 | 23174 ft | 462 kts | 71° |
| 2026-05-06 14:30 | 41.50480 | 11.16188 | 22610 ft | 456 kts | 71° |
| 2026-05-06 14:30 | 41.51586 | 11.20138 | 22064 ft | 451 kts | 71° |
| 2026-05-06 14:30 | 41.52672 | 11.24029 | 21543 ft | 446 kts | 71° |
| 2026-05-06 14:30 | 41.53766 | 11.27946 | 20976 ft | 443 kts | 71° |
| 2026-05-06 14:31 | 41.54833 | 11.31757 | 20388 ft | 441 kts | 71° |
| 2026-05-06 14:31 | 41.55940 | 11.35721 | 19781 ft | 438 kts | 72° |
| 2026-05-06 14:31 | 41.57186 | 11.39476 | 19195 ft | 438 kts | 60° |
| 2026-05-06 14:31 | 41.59071 | 11.42643 | 18633 ft | 437 kts | 44° |
| 2026-05-06 14:32 | 41.61520 | 11.45166 | 18033 ft | 434 kts | 35° |
| 2026-05-06 14:32 | 41.63940 | 11.47428 | 17521 ft | 430 kts | 34° |
| 2026-05-06 14:32 | 41.66450 | 11.49753 | 17047 ft | 438 kts | 34° |
| 2026-05-06 14:32 | 41.69034 | 11.52139 | 16563 ft | 441 kts | 34° |
| 2026-05-06 14:33 | 41.71587 | 11.54501 | 16108 ft | 438 kts | 34° |
| 2026-05-06 14:33 | 41.74109 | 11.56849 | 15657 ft | 435 kts | 34° |
| 2026-05-06 14:33 | 41.76649 | 11.59223 | 15202 ft | 438 kts | 34° |
| 2026-05-06 14:33 | 41.79167 | 11.61580 | 14757 ft | 436 kts | 34° |
| 2026-05-06 14:34 | 41.81364 | 11.63640 | 14383 ft | 433 kts | 34° |
| 2026-05-06 14:34 | 41.84049 | 11.66170 | 13919 ft | 430 kts | 34° |
| 2026-05-06 14:34 | 41.86511 | 11.68489 | 13456 ft | 427 kts | 34° |
| 2026-05-06 14:34 | 41.88930 | 11.70761 | 12990 ft | 428 kts | 34° |
| 2026-05-06 14:35 | 41.91387 | 11.73064 | 12518 ft | 428 kts | 34° |
| 2026-05-06 14:35 | 41.93843 | 11.75369 | 12059 ft | 426 kts | 34° |
| 2026-05-06 14:35 | 41.95460 | 11.76892 | 11762 ft | 424 kts | 34° |
| 2026-05-06 14:35 | 41.97919 | 11.79217 | 11306 ft | 422 kts | 34° |
| 2026-05-06 14:36 | 42.00308 | 11.81479 | 10870 ft | 419 kts | 34° |
| 2026-05-06 14:36 | 42.02682 | 11.83726 | 10413 ft | 400 kts | 34° |
| 2026-05-06 14:36 | 42.04885 | 11.85817 | 10027 ft | 374 kts | 34° |
| 2026-05-06 14:36 | 42.06947 | 11.87847 | 9886 ft | 345 kts | 41° |
| 2026-05-06 14:37 | 42.08424 | 11.90252 | 9761 ft | 321 kts | 62° |
| 2026-05-06 14:37 | 42.09236 | 11.92954 | 9625 ft | 299 kts | 74° |
| 2026-05-06 14:37 | 42.09868 | 11.95615 | 9277 ft | 288 kts | 74° |
| 2026-05-06 14:37 | 42.10481 | 11.98221 | 8436 ft | 299 kts | 74° |
| 2026-05-06 14:38 | 42.11092 | 12.00935 | 7796 ft | 298 kts | 80° |
| 2026-05-06 14:38 | 42.11119 | 12.03695 | 7265 ft | 288 kts | 106° |
| 2026-05-06 14:38 | 42.10341 | 12.06148 | 6734 ft | 277 kts | 130° |
| 2026-05-06 14:38 | 42.09095 | 12.08080 | 6140 ft | 273 kts | 137° |
| 2026-05-06 14:39 | 42.07802 | 12.09971 | 5773 ft | 263 kts | 136° |
| 2026-05-06 14:39 | 42.06590 | 12.11744 | 5601 ft | 248 kts | 136° |
| 2026-05-06 14:39 | 42.05431 | 12.13431 | 5217 ft | 242 kts | 136° |
| 2026-05-06 14:39 | 42.04294 | 12.15085 | 4672 ft | 242 kts | 136° |
| 2026-05-06 14:40 | 42.03149 | 12.16751 | 4210 ft | 238 kts | 137° |
| 2026-05-06 14:40 | 42.02016 | 12.18370 | 3744 ft | 234 kts | 142° |
| 2026-05-06 14:40 | 42.00635 | 12.19417 | 3340 ft | 223 kts | 164° |
| 2026-05-06 14:40 | 41.99175 | 12.20031 | 3032 ft | 214 kts | 165° |
| 2026-05-06 14:41 | 41.97737 | 12.20632 | 2743 ft | 204 kts | 165° |
| 2026-05-06 14:41 | 41.96435 | 12.21179 | 2480 ft | 196 kts | 164° |
| 2026-05-06 14:41 | 41.95108 | 12.21737 | 2211 ft | 189 kts | 163° |
| 2026-05-06 14:41 | 41.93863 | 12.22260 | 1983 ft | 180 kts | 163° |
| 2026-05-06 14:42 | 41.92673 | 12.22760 | 1722 ft | 171 kts | 163° |
| 2026-05-06 14:42 | 41.91975 | 12.23053 | 1559 ft | 163 kts | 163° |
| 2026-05-06 14:42 | 41.90805 | 12.23544 | 1343 ft | 148 kts | 163° |
| 2026-05-06 14:42 | 41.89835 | 12.23951 | 1133 ft | 141 kts | 163° |
| 2026-05-06 14:43 | 41.88914 | 12.24338 | 960 ft | 138 kts | 165° |
| 2026-05-06 14:43 | 41.87988 | 12.24726 | 780 ft | 141 kts | 164° |
| 2026-05-06 14:43 | 41.87056 | 12.25103 | 579 ft | 140 kts | 164° |
| 2026-05-06 14:43 | 41.86126 | 12.25516 | 357 ft | 140 kts | 160° |
| 2026-05-06 14:44 | 41.85191 | 12.25891 | 180 ft | 138 kts | 161° |
| 2026-05-06 14:44 | 41.84276 | 12.26289 | 48 ft | 137 kts | 162° |
| 2026-05-06 14:44 | 41.83432 | 12.26640 | 18 ft | 114 kts | 161° |
| 2026-05-06 14:45 | 41.82520 | 12.27019 | 14 ft | 35 kts | 162° |
| 2026-05-06 14:45 | 41.82287 | 12.27113 | 12 ft | 34 kts | 165° |
| 2026-05-06 14:45 | 41.82063 | 12.27138 | 16 ft | 31 kts | 186° |
| 2026-05-06 14:45 | 41.81850 | 12.27078 | 15 ft | 31 kts | 192° |
| 2026-05-06 14:46 | 41.81635 | 12.27067 | 15 ft | 32 kts | 165° |
| 2026-05-06 14:46 | 41.81454 | 12.27139 | 15 ft | 28 kts | 167° |
| 2026-05-06 14:46 | 41.81264 | 12.27214 | 15 ft | 29 kts | 160° |
| 2026-05-06 14:46 | 41.81088 | 12.27298 | 15 ft | 23 kts | 161° |
| 2026-05-06 14:47 | 41.80931 | 12.27352 | 15 ft | 24 kts | 182° |
| 2026-05-06 14:47 | 41.80771 | 12.27320 | 15 ft | 21 kts | 189° |
| 2026-05-06 14:47 | 41.80657 | 12.27217 | 15 ft | 21 kts | 255° |
| 2026-05-06 14:47 | 41.80599 | 12.27028 | 17 ft | 23 kts | 250° |
| 2026-05-06 14:48 | 41.80549 | 12.26838 | 15 ft | 22 kts | 250° |
| 2026-05-06 14:48 | 41.80508 | 12.26685 | 16 ft | 13 kts | 250° |
| 2026-05-06 14:48 | 41.80473 | 12.26560 | 17 ft | 15 kts | 250° |
| 2026-05-06 14:48 | 41.80439 | 12.26433 | 15 ft | 13 kts | 250° |
| 2026-05-06 14:49 | 41.80365 | 12.26370 | 15 ft | 14 kts | 176° |
| 2026-05-06 14:49 | 41.80271 | 12.26408 | 15 ft | 15 kts | 166° |
| 2026-05-06 14:49 | 41.80190 | 12.26412 | 16 ft | 10 kts | 163° |
| 2026-05-06 14:49 | 41.80119 | 12.26448 | 16 ft | 12 kts | 160° |
| 2026-05-06 14:50 | 41.80072 | 12.26479 | 15 ft | 2 kts | 100° |
| 2026-05-06 14:50 | 41.80078 | 12.26493 | 15 ft | 3 kts | 63° |
| 2026-05-06 14:50 | 41.80089 | 12.26516 | 17 ft | 4 kts | 57° |
| 2026-05-06 14:50 | 41.80105 | 12.26563 | 15 ft | 5 kts | 90° |
| 2026-05-06 14:51 | 41.80078 | 12.26603 | 15 ft | 6 kts | 153° |
| 2026-05-06 14:51 | 41.80034 | 12.26623 | 15 ft | 6 kts | 192° |
| 2026-05-06 14:51 | 41.80015 | 12.26581 | 15 ft | 3 kts | 250° |
| 2026-05-06 14:51 | 41.80010 | 12.26567 | 17 ft | 0 kts | 249° |
| 2026-05-06 14:52 | 41.80009 | 12.26563 | 17 ft | 0 kts | 249° |